KWMC/WMC METAR and TAF weather

Enter ICAO airport designator
Station Type Date Time Source
KWMC METAR 2019/08/23 17:56 UTC NOAA

KWMC 231756Z AUTO 35004KT 10SM CLR 26/03 A3003 RMK AO2 SLP121 T02560028 10256 20067 58004


Station Type Date Time Source
KWMC Decoded METAR 2019/08/23 17:56 UTC NOAA

Station name not available
Aug 23, 2019 - 01:56 PM EDT / 2019.08.23 1756 UTC
Wind: from the N (350 degrees) at 5 MPH (4 KT):0
Visibility: 10 mile(s):0
Sky conditions: clear
Temperature: 78.1 F (25.6 C)
Dew Point: 37.0 F (2.8 C)
Relative Humidity: 22%
Pressure (altimeter): 30.03 in. Hg (1016 hPa)
Pressure tendency: 0.01 inches (0.4 hPa) lower than three hours ago
ob: KWMC 231756Z AUTO 35004KT 10SM CLR 26/03 A3003 RMK AO2 SLP121 T02560028 10256 20067 58004
cycle: 18

Station Type Date Time Source
KWMC TAF 2019/08/23 18:22 UTC NOAA

TAF KWMC 231720Z 2318/2418 VRB04KT P6SM FEW250
FM232100 28008KT P6SM SCT250
FM240300 VRB06KT P6SM FEW250
FM241700 24015G25KT P6SM SCT250

Example: see airport list